createdAt,value
2023-02-08T00:02:33.850Z,16.10
2023-02-08T00:05:37.752Z,16.35
2023-02-08T00:08:41.996Z,16.53
2023-02-08T00:11:45.406Z,13.63
2023-02-08T00:14:50.157Z,11.05
2023-02-08T00:17:53.581Z,11.05
2023-02-08T00:20:57.293Z,10.23
2023-02-08T00:24:00.650Z,10.27
2023-02-08T00:27:04.143Z,11.43
2023-02-08T00:30:09.781Z,8.67
2023-02-08T00:33:13.966Z,9.17
2023-02-08T00:36:17.418Z,9.90
2023-02-08T00:39:21.149Z,9.52
2023-02-08T00:42:25.128Z,9.43
2023-02-08T00:45:31.386Z,7.60
2023-02-08T00:48:34.814Z,7.93
2023-02-08T00:51:38.186Z,7.15
2023-02-08T00:54:42.264Z,8.23
2023-02-08T00:57:45.678Z,7.57
2023-02-08T01:00:51.956Z,7.25
2023-02-08T01:03:55.379Z,7.72
2023-02-08T01:06:58.753Z,7.57
2023-02-08T01:10:02.130Z,8.17
2023-02-08T01:13:05.553Z,7.37
2023-02-08T01:16:12.365Z,7.50
2023-02-08T01:19:16.256Z,7.80
2023-02-08T01:22:19.672Z,7.20
2023-02-08T01:25:23.878Z,8.00
2023-02-08T01:28:27.502Z,8.60
2023-02-08T01:31:33.110Z,7.57
2023-02-08T01:34:36.650Z,6.60
2023-02-08T01:37:41.124Z,8.17
2023-02-08T01:40:45.809Z,7.67
2023-02-08T01:44:06.564Z,7.47
2023-02-08T01:47:11.334Z,6.80
2023-02-08T01:50:15.301Z,6.90
2023-02-08T01:53:18.838Z,7.07
2023-02-08T01:56:25.252Z,7.57
2023-02-08T01:59:31.113Z,7.90
2023-02-08T02:02:37.720Z,7.27
2023-02-08T02:05:43.053Z,7.57
2023-02-08T02:08:49.474Z,7.73
2023-02-08T02:11:54.977Z,7.30
2023-02-08T02:14:58.490Z,7.23
2023-02-08T02:18:03.674Z,6.63
2023-02-08T02:21:15.935Z,6.53
2023-02-08T02:24:43.380Z,6.80
2023-02-08T02:27:54.679Z,7.27
2023-02-08T02:31:07.366Z,6.67
2023-02-08T02:34:14.612Z,7.27
2023-02-08T02:37:27.003Z,6.80
2023-02-08T02:40:34.497Z,5.70
2023-02-08T02:43:43.522Z,6.90
2023-02-08T02:46:52.094Z,6.83
2023-02-08T02:49:58.717Z,6.60
2023-02-08T02:53:04.044Z,6.27
2023-02-08T02:56:10.981Z,5.83
2023-02-08T02:59:15.202Z,5.73
2023-02-08T03:02:18.645Z,5.70
2023-02-08T03:05:23.509Z,5.13
2023-02-08T03:08:42.642Z,5.93
2023-02-08T03:11:49.627Z,6.23
2023-02-08T03:14:58.638Z,6.00
2023-02-08T03:18:07.235Z,6.07
2023-02-08T03:21:14.574Z,5.70
2023-02-08T03:24:24.669Z,5.70
2023-02-08T03:27:30.056Z,5.00
2023-02-08T03:30:36.137Z,6.20
2023-02-08T03:33:41.822Z,5.27
2023-02-08T03:36:49.243Z,5.77
2023-02-08T03:39:55.210Z,6.87
2023-02-08T03:43:00.324Z,6.77
2023-02-08T03:46:07.242Z,6.00
2023-02-08T03:49:14.506Z,4.97
2023-02-08T03:52:20.402Z,6.33
2023-02-08T03:55:25.064Z,5.80
2023-02-08T03:58:30.297Z,5.33
2023-02-08T04:01:36.686Z,5.93
2023-02-08T04:04:43.505Z,5.93
2023-02-08T04:07:48.237Z,4.97
2023-02-08T04:10:51.638Z,5.33
2023-02-08T04:13:55.127Z,5.37
2023-02-08T04:16:58.558Z,6.67
2023-02-08T04:20:01.987Z,6.23
2023-02-08T04:23:06.956Z,5.73
2023-02-08T04:26:10.492Z,5.87
2023-02-08T04:29:13.971Z,6.33
2023-02-08T04:32:17.341Z,6.83
2023-02-08T04:35:20.889Z,5.70
2023-02-08T04:38:26.240Z,5.97
2023-02-08T04:41:29.780Z,6.10
2023-02-08T04:44:34.657Z,5.60
2023-02-08T04:47:38.084Z,6.40
2023-02-08T04:50:42.500Z,6.97
2023-02-08T04:53:47.575Z,7.17
2023-02-08T04:56:51.149Z,6.43
2023-02-08T04:59:54.986Z,6.57
2023-02-08T05:02:58.662Z,6.50
2023-02-08T05:06:02.552Z,5.77
2023-02-08T05:09:08.394Z,6.00
2023-02-08T05:12:11.909Z,6.77
2023-02-08T05:15:15.487Z,6.63
2023-02-08T05:18:19.037Z,7.60
2023-02-08T05:21:23.764Z,7.53
2023-02-08T05:24:28.512Z,7.90
2023-02-08T05:27:32.548Z,7.47
2023-02-08T05:30:35.960Z,7.20
2023-02-08T05:33:39.404Z,6.83
2023-02-08T05:36:42.793Z,7.43
2023-02-08T05:39:47.597Z,7.87
2023-02-08T05:42:51.058Z,7.47
2023-02-08T05:45:54.487Z,8.90
2023-02-08T05:48:58.669Z,8.17
2023-02-08T05:52:02.137Z,7.67
2023-02-08T05:55:08.376Z,7.33
2023-02-08T05:58:11.701Z,7.27
2023-02-08T06:01:15.755Z,8.40
2023-02-08T06:04:19.507Z,8.83
2023-02-08T06:07:24.295Z,8.40
2023-02-08T06:10:29.085Z,9.47
2023-02-08T06:13:32.526Z,8.10
2023-02-08T06:16:35.952Z,9.07
2023-02-08T06:19:39.460Z,7.93
2023-02-08T06:22:42.878Z,8.83
2023-02-08T06:25:47.870Z,8.37
2023-02-08T06:28:51.223Z,8.47
2023-02-08T06:31:54.725Z,8.47
2023-02-08T06:34:59.332Z,9.37
2023-02-08T06:38:02.682Z,7.50
2023-02-08T06:41:07.589Z,8.20
2023-02-08T06:44:11.003Z,9.10
2023-02-08T06:47:14.385Z,9.27
2023-02-08T06:50:17.860Z,8.37
2023-02-08T06:53:21.585Z,7.43
2023-02-08T06:56:26.468Z,8.80
2023-02-08T06:59:30.111Z,8.30
2023-02-08T07:02:41.264Z,11.03
2023-02-08T07:05:58.697Z,9.97
2023-02-08T07:09:10.282Z,9.07
2023-02-08T07:12:17.488Z,8.73
2023-02-08T07:15:21.134Z,10.20
2023-02-08T07:18:24.779Z,9.57
2023-02-08T07:21:32.575Z,8.20
2023-02-08T07:24:36.604Z,8.50
2023-02-08T07:27:41.439Z,9.07
2023-02-08T07:30:45.780Z,9.20
2023-02-08T07:33:49.829Z,10.90
2023-02-08T07:36:53.355Z,10.03
2023-02-08T07:39:56.910Z,10.33
2023-02-08T07:43:01.555Z,10.93
2023-02-08T07:46:16.883Z,10.37
2023-02-08T07:49:20.667Z,10.43
2023-02-08T07:52:24.198Z,11.10
2023-02-08T07:55:28.261Z,9.53
2023-02-08T07:58:33.244Z,10.07
2023-02-08T08:01:36.761Z,10.23
2023-02-08T08:04:41.524Z,10.60
2023-02-08T08:07:45.369Z,11.23
2023-02-08T08:10:49.579Z,10.50
2023-02-08T08:13:54.648Z,11.43
2023-02-08T08:16:58.128Z,10.23
2023-02-08T08:20:01.547Z,10.87
2023-02-08T08:23:05.151Z,12.00
2023-02-08T08:26:10.570Z,11.17
2023-02-08T08:29:16.275Z,11.37
2023-02-08T08:32:21.202Z,10.27
2023-02-08T08:35:26.354Z,8.82
2023-02-08T08:38:29.810Z,9.10
2023-02-08T08:41:33.243Z,7.13
2023-02-08T08:44:37.965Z,12.45
2023-02-08T08:47:43.298Z,11.40
2023-02-08T08:50:49.867Z,10.93
2023-02-08T08:53:53.366Z,11.00
2023-02-08T08:56:56.786Z,11.60
2023-02-08T09:00:06.770Z,11.20
2023-02-08T09:03:10.928Z,10.35
2023-02-08T09:06:14.834Z,10.80
2023-02-08T09:09:21.445Z,11.80
2023-02-08T09:12:25.183Z,10.63
2023-02-08T09:15:29.991Z,11.48
2023-02-08T09:18:33.800Z,10.00
2023-02-08T09:21:38.230Z,11.40
2023-02-08T09:24:57.464Z,10.27
2023-02-08T09:28:01.474Z,9.95
2023-02-08T09:31:23.329Z,9.55
2023-02-08T09:34:30.224Z,11.80
2023-02-08T09:37:36.344Z,9.88
2023-02-08T09:40:56.640Z,11.07
2023-02-08T09:44:08.159Z,8.82
2023-02-08T09:47:31.255Z,10.13
2023-02-08T09:50:35.886Z,11.07
2023-02-08T09:54:37.319Z,9.60
2023-02-08T09:57:41.025Z,9.70
2023-02-08T10:04:10.598Z,10.38
2023-02-08T10:07:23.217Z,9.55
2023-02-08T10:10:40.299Z,9.48
2023-02-08T10:13:57.103Z,10.32
2023-02-08T10:17:10.995Z,8.23
2023-02-08T10:21:07.158Z,9.30
2023-02-08T10:24:32.432Z,8.10
2023-02-08T10:27:50.920Z,7.82
2023-02-08T10:31:10.495Z,7.60
2023-02-08T10:34:51.423Z,7.90
2023-02-08T10:37:56.516Z,8.52
2023-02-08T10:41:02.051Z,9.20
2023-02-08T10:44:11.509Z,8.32
2023-02-08T10:47:20.898Z,10.13
2023-02-08T10:50:33.599Z,9.77
2023-02-08T10:54:14.061Z,8.27
2023-02-08T10:57:19.518Z,8.05
2023-02-08T11:00:27.411Z,8.82
2023-02-08T11:08:24.876Z,8.35
2023-02-08T11:11:36.196Z,8.98
2023-02-08T11:14:55.031Z,8.55
2023-02-08T11:18:06.165Z,10.07
2023-02-08T11:25:55.978Z,9.25
2023-02-08T11:33:19.050Z,7.13
2023-02-08T11:36:22.551Z,6.93
2023-02-08T11:39:28.593Z,9.75
2023-02-08T11:42:36.737Z,8.75
2023-02-08T11:45:40.401Z,9.48
2023-02-08T11:48:47.621Z,7.10
2023-02-08T11:51:52.515Z,7.00
2023-02-08T11:54:56.263Z,8.70
2023-02-08T11:58:02.352Z,8.20
2023-02-08T12:01:06.240Z,8.48
2023-02-08T12:04:19.230Z,7.65
2023-02-08T12:07:25.391Z,7.43
2023-02-08T12:10:35.792Z,8.13
2023-02-08T12:13:48.350Z,8.02
2023-02-08T12:16:57.759Z,7.70
2023-02-08T12:20:10.425Z,8.27
2023-02-08T12:23:29.474Z,6.97
2023-02-08T12:26:48.421Z,7.35
2023-02-08T12:30:01.194Z,7.53
2023-02-08T12:33:16.790Z,6.82
2023-02-08T12:36:40.089Z,7.78
2023-02-08T12:40:08.009Z,6.35
2023-02-08T12:43:20.259Z,6.35
2023-02-08T12:46:33.540Z,7.53
2023-02-08T12:50:13.140Z,6.60
2023-02-08T12:53:33.639Z,7.47
2023-02-08T12:57:14.689Z,6.45
2023-02-08T13:01:05.374Z,6.93
2023-02-08T13:08:44.353Z,7.47
2023-02-08T13:12:40.806Z,6.65
2023-02-08T13:16:09.284Z,4.88
2023-02-08T13:19:30.735Z,7.70
2023-02-08T13:22:41.317Z,6.13
2023-02-08T13:34:38.640Z,8.02
2023-02-08T13:37:53.537Z,5.97
2023-02-08T13:41:12.916Z,5.93
2023-02-08T13:45:03.046Z,5.93
2023-02-08T13:48:39.494Z,6.60
2023-02-08T13:52:48.156Z,5.57
2023-02-08T13:56:07.272Z,6.10
2023-02-08T13:59:33.470Z,4.80
2023-02-08T14:03:26.283Z,4.28
2023-02-08T14:06:34.608Z,4.90
2023-02-08T14:10:27.526Z,5.05
2023-02-08T14:18:27.125Z,5.47
2023-02-08T14:21:41.120Z,5.13
2023-02-08T14:25:33.057Z,5.13
2023-02-08T14:28:45.510Z,4.47
2023-02-08T14:31:49.144Z,4.45
2023-02-08T14:36:08.631Z,5.97
2023-02-08T14:39:34.512Z,6.00
2023-02-08T14:43:01.917Z,5.70
2023-02-08T14:46:36.727Z,5.95
2023-02-08T14:49:43.985Z,6.97
2023-02-08T14:53:00.692Z,7.05
2023-02-08T14:56:24.408Z,8.93
2023-02-08T14:59:32.391Z,8.15
2023-02-08T15:02:40.564Z,7.60
2023-02-08T15:06:32.753Z,8.52
2023-02-08T15:09:40.409Z,8.90
2023-02-08T15:12:53.872Z,8.82
2023-02-08T15:16:18.106Z,8.15
2023-02-08T15:20:14.945Z,9.07
2023-02-08T15:23:21.278Z,9.82
2023-02-08T15:26:26.470Z,9.50
2023-02-08T15:29:49.280Z,7.55
2023-02-08T15:33:28.939Z,8.90
2023-02-08T15:36:41.497Z,8.68
2023-02-08T15:39:52.028Z,7.88
2023-02-08T15:43:05.741Z,9.48
2023-02-08T15:50:22.716Z,9.15
2023-02-08T15:53:33.809Z,11.38
2023-02-08T15:56:42.434Z,9.50
2023-02-08T16:00:35.506Z,8.82
2023-02-08T16:04:13.378Z,9.45
2023-02-08T16:07:26.423Z,8.00
2023-02-08T16:11:15.995Z,8.30
2023-02-08T16:14:29.343Z,9.75
2023-02-08T16:17:37.247Z,8.23
2023-02-08T16:20:40.528Z,8.35
2023-02-08T16:23:50.183Z,9.45
2023-02-08T16:27:00.433Z,10.10
2023-02-08T16:30:03.966Z,9.52
2023-02-08T16:33:14.803Z,8.77
2023-02-08T16:40:55.726Z,9.68
2023-02-08T16:44:49.023Z,12.45
2023-02-08T16:48:04.267Z,10.52
2023-02-08T16:51:16.647Z,10.27
2023-02-08T16:54:29.361Z,10.15
2023-02-08T16:57:41.604Z,10.23
2023-02-08T17:00:46.050Z,11.30
2023-02-08T17:03:50.348Z,10.70
2023-02-08T17:06:54.487Z,10.43
2023-02-08T17:14:29.489Z,9.82
2023-02-08T17:17:41.178Z,11.75
2023-02-08T17:20:47.984Z,10.82
2023-02-08T17:24:18.488Z,11.55
2023-02-08T17:27:40.907Z,13.15
2023-02-08T17:31:44.989Z,20.60
2023-02-08T17:35:16.153Z,13.55
2023-02-08T17:39:01.371Z,13.13
2023-02-08T17:42:18.052Z,12.38
2023-02-08T17:45:28.910Z,11.98
2023-02-08T17:48:32.963Z,11.90
2023-02-08T17:51:38.769Z,11.43
2023-02-08T17:55:19.556Z,11.68
2023-02-08T17:58:34.183Z,12.57
2023-02-08T18:01:54.138Z,12.18
2023-02-08T18:05:18.770Z,11.40
2023-02-08T18:08:41.416Z,10.60
2023-02-08T18:12:39.187Z,15.60
2023-02-08T18:20:29.719Z,22.67
2023-02-08T18:23:55.666Z,19.27
2023-02-08T18:34:50.293Z,14.85
2023-02-08T18:38:32.412Z,15.15
2023-02-08T18:45:46.012Z,12.02
2023-02-08T18:48:53.679Z,11.75
2023-02-08T18:51:58.101Z,11.27
2023-02-08T18:55:03.112Z,11.40
2023-02-08T19:23:31.221Z,10.90
2023-02-08T19:32:11.303Z,9.75
2023-02-08T19:36:18.673Z,9.90
2023-02-08T19:39:44.202Z,10.32
2023-02-08T19:42:48.935Z,11.05
2023-02-08T19:45:53.684Z,11.38
2023-02-08T19:49:00.250Z,11.15
2023-02-08T19:52:04.178Z,11.10
2023-02-08T19:55:09.152Z,11.23
2023-02-08T19:58:16.589Z,10.32
2023-02-08T20:01:23.604Z,11.82
2023-02-08T20:04:43.416Z,10.20
2023-02-08T20:07:53.316Z,9.60
2023-02-08T20:12:30.819Z,10.93
2023-02-08T20:15:20.768Z,9.65
2023-02-08T20:22:49.068Z,10.63
2023-02-08T20:30:07.109Z,9.10
2023-02-08T20:33:17.586Z,10.13
2023-02-08T20:36:25.552Z,10.48
2023-02-08T20:39:34.691Z,10.90
2023-02-08T20:42:38.564Z,11.52
2023-02-08T20:45:42.803Z,11.27
2023-02-08T20:48:46.799Z,10.27
2023-02-08T20:51:52.213Z,10.65
2023-02-08T20:55:02.116Z,11.02
2023-02-08T20:58:05.923Z,9.90
2023-02-08T21:01:12.981Z,11.27
2023-02-08T21:04:17.338Z,10.57
2023-02-08T21:07:21.080Z,10.98
2023-02-08T21:10:27.857Z,11.38
2023-02-08T21:13:31.435Z,11.43
2023-02-08T21:16:38.140Z,11.05
2023-02-08T21:19:44.438Z,12.27
2023-02-08T21:22:50.002Z,11.25
2023-02-08T21:26:01.628Z,12.40
2023-02-08T21:29:06.399Z,13.57
2023-02-08T21:32:10.007Z,12.60
2023-02-08T21:35:13.463Z,11.73
2023-02-08T21:38:16.891Z,12.25
2023-02-08T21:41:23.643Z,12.77
2023-02-08T21:44:29.801Z,12.32
2023-02-08T21:47:33.379Z,12.48
2023-02-08T21:50:57.150Z,11.73
2023-02-08T21:54:18.702Z,13.20
2023-02-08T21:57:27.640Z,11.38
2023-02-08T22:00:35.200Z,13.13
2023-02-08T22:03:38.746Z,14.10
2023-02-08T22:06:48.121Z,13.80
2023-02-08T22:09:58.988Z,12.98
2023-02-08T22:13:08.640Z,13.88
2023-02-08T22:16:18.302Z,14.30
2023-02-08T22:19:21.901Z,13.40
2023-02-08T22:22:25.659Z,13.05
2023-02-08T22:25:29.611Z,13.32
2023-02-08T22:28:34.618Z,13.32
2023-02-08T22:31:38.462Z,13.65
2023-02-08T22:38:28.051Z,13.90
2023-02-08T22:41:31.820Z,13.10
2023-02-08T22:44:58.543Z,12.77
2023-02-08T22:48:08.814Z,12.68
2023-02-08T22:51:22.143Z,13.40
2023-02-08T22:57:39.118Z,13.50
2023-02-08T23:00:48.416Z,13.80
2023-02-08T23:03:51.977Z,13.45
2023-02-08T23:06:55.403Z,12.25
2023-02-08T23:09:58.959Z,14.02
2023-02-08T23:13:02.618Z,14.37
2023-02-08T23:16:07.928Z,13.85
2023-02-08T23:19:14.896Z,13.25
2023-02-08T23:22:18.379Z,13.90
2023-02-08T23:25:22.186Z,14.85
2023-02-08T23:28:26.060Z,12.15
2023-02-08T23:31:31.460Z,13.10
2023-02-08T23:34:35.859Z,15.32
2023-02-08T23:37:40.059Z,14.63
2023-02-08T23:40:44.304Z,13.82
2023-02-08T23:43:48.302Z,13.70
2023-02-08T23:46:53.257Z,13.43
2023-02-08T23:49:57.042Z,13.85
2023-02-08T23:53:00.541Z,14.40
2023-02-08T23:56:06.563Z,13.35
2023-02-08T23:59:12.379Z,13.43
